Bude — V7XL2 — position and weather

sailwx.info

Track history (hours):
 
Tides and Currents Weather Stations Pressure Air Temp Water Temp Dewpoint Dewpoint Depression Visibility Wind Speed Wind Dir Waves Ship Positions

Bude

Last reported at 2015-May-05 09:30 UTC. Time now 2015-May-06 14:31 UTC.
Position N 37°39' E 023°42'.

Length 119 m; draft 6.3 m.

Type: Cargo ship. MMSI: 538004506.

Date/timePositionNaut miles runAvg speedWind from/ knotsBaromVisibWave heightAir tempDewpointWater temp
2015-May-05 09:30N 37°39' E 023°42'910.0
2015-May-05 08:33N 37°48' E 023°37'7 7.3
2015-May-05 07:32N 37°54' E 023°32'0 0.0
2015-May-05 06:32N 37°54' E 023°32'0 0.0
2015-May-05 05:32N 37°54' E 023°32'0 0.0
2015-May-05 04:29N 37°54' E 023°32'0 0.0
2015-May-05 03:32N 37°54' E 023°32'0 0.0
2015-May-05 02:32N 37°54' E 023°32'0 0.0
2015-May-05 01:33N 37°54' E 023°32'2 2.4
2015-May-05 00:33N 37°53' E 023°35'9 9.0
2015-May-04 23:33N 37°46' E 023°42'10 9.4
2015-May-04 22:28N 37°36' E 023°45'10 9.9
2015-May-04 21:26N 37°26' E 023°43'8 9.6
2015-May-04 20:33N 37°17' E 023°42'12 9.7
2015-May-04 19:17N 37°05' E 023°39'710.0
2015-May-04 18:33N 36°58' E 023°36'1010.0
2015-May-04 17:33N 36°48' E 023°33'239 7.4
2015-May-03 09:27N 39°10' E 019°30'23 9.9
2015-May-03 07:05N 39°31' E 019°17'6 9.8
2015-May-03 06:28N 39°37' E 019°14'13 9.7
2015-May-03 05:09N 39°48' E 019°07'8 9.8
2015-May-03 04:22N 39°55' E 019°02'8 9.6
2015-May-03 03:33N 40°02' E 018°58'12 9.6
2015-May-03 02:17N 40°12' E 018°49'910.0
2015-May-03 01:26N 40°19' E 018°42'  
Track history (hours):
 
Tides and Currents Weather Stations Pressure Air Temp Water Temp Dewpoint Dewpoint Depression Visibility Wind Speed Wind Dir Waves Ship Positions

Bude

Last reported at 2015-May-05 09:30 UTC. Time now 2015-May-06 14:31 UTC.
Position N 37°39' E 023°42'.

Length 119 m; draft 6.3 m.

Type: Cargo ship. MMSI: 538004506.

Date/timePositionNaut miles runAvg speedWind from/ knotsBaromVisibWave heightAir tempDewpointWater temp
2015-May-05 09:30N 37°39' E 023°42'910.0
2015-May-05 08:33N 37°48' E 023°37'7 7.3
2015-May-05 07:32N 37°54' E 023°32'0 0.0
2015-May-05 06:32N 37°54' E 023°32'0 0.0
2015-May-05 05:32N 37°54' E 023°32'0 0.0
2015-May-05 04:29N 37°54' E 023°32'0 0.0
2015-May-05 03:32N 37°54' E 023°32'0 0.0
2015-May-05 02:32N 37°54' E 023°32'0 0.0
2015-May-05 01:33N 37°54' E 023°32'2 2.4
2015-May-05 00:33N 37°53' E 023°35'9 9.0
2015-May-04 23:33N 37°46' E 023°42'10 9.4
2015-May-04 22:28N 37°36' E 023°45'10 9.9
2015-May-04 21:26N 37°26' E 023°43'8 9.6
2015-May-04 20:33N 37°17' E 023°42'12 9.7
2015-May-04 19:17N 37°05' E 023°39'710.0
2015-May-04 18:33N 36°58' E 023°36'1010.0
2015-May-04 17:33N 36°48' E 023°33'239 7.4
2015-May-03 09:27N 39°10' E 019°30'23 9.9
2015-May-03 07:05N 39°31' E 019°17'6 9.8
2015-May-03 06:28N 39°37' E 019°14'13 9.7
2015-May-03 05:09N 39°48' E 019°07'8 9.8
2015-May-03 04:22N 39°55' E 019°02'8 9.6
2015-May-03 03:33N 40°02' E 018°58'12 9.6
2015-May-03 02:17N 40°12' E 018°49'910.0
2015-May-03 01:26N 40°19' E 018°42'  

Dump ship's entire track history